sensor_id;sensor_type;location;lat;lon;timestamp;pressure;altitude;pressure_sealevel;temperature
76394;BMP180;65216;51.090;-115.352;2023-03-01T00:01:44;85438.40;;;21.00
76394;BMP180;65216;51.090;-115.352;2023-03-01T00:04:12;85446.00;;;21.00
76394;BMP180;65216;51.090;-115.352;2023-03-01T00:06:45;85440.60;;;21.00
76394;BMP180;65216;51.090;-115.352;2023-03-01T00:09:17;85449.40;;;21.00
76394;BMP180;65216;51.090;-115.352;2023-03-01T00:11:44;85455.00;;;21.00
76394;BMP180;65216;51.090;-115.352;2023-03-01T00:14:15;85455.40;;;21.00
76394;BMP180;65216;51.090;-115.352;2023-03-01T00:16:49;85463.40;;;21.00
76394;BMP180;65216;51.090;-115.352;2023-03-01T00:19:20;85463.20;;;21.00
76394;BMP180;65216;51.090;-115.352;2023-03-01T00:21:49;85463.40;;;21.00
76394;BMP180;65216;51.090;-115.352;2023-03-01T00:24:19;85465.40;;;21.00
76394;BMP180;65216;51.090;-115.352;2023-03-01T00:26:55;85470.80;;;20.90
76394;BMP180;65216;51.090;-115.352;2023-03-01T00:29:24;85477.60;;;20.90
76394;BMP180;65216;51.090;-115.352;2023-03-01T00:31:52;85480.40;;;20.90
76394;BMP180;65216;51.090;-115.352;2023-03-01T00:34:19;85489.00;;;20.90
76394;BMP180;65216;51.090;-115.352;2023-03-01T00:36:46;85486.80;;;20.90
76394;BMP180;65216;51.090;-115.352;2023-03-01T00:39:15;85511.60;;;20.90
76394;BMP180;65216;51.090;-115.352;2023-03-01T00:41:43;85504.80;;;20.90
76394;BMP180;65216;51.090;-115.352;2023-03-01T00:44:11;85502.40;;;20.90
76394;BMP180;65216;51.090;-115.352;2023-03-01T00:46:39;85516.60;;;20.90
76394;BMP180;65216;51.090;-115.352;2023-03-01T00:49:06;85505.20;;;20.90
76394;BMP180;65216;51.090;-115.352;2023-03-01T00:51:36;85531.80;;;20.90
76394;BMP180;65216;51.090;-115.352;2023-03-01T00:54:06;85535.60;;;20.90
76394;BMP180;65216;51.090;-115.352;2023-03-01T00:56:33;85527.20;;;20.90
76394;BMP180;65216;51.090;-115.352;2023-03-01T00:59:01;85536.00;;;20.90
76394;BMP180;65216;51.090;-115.352;2023-03-01T01:01:34;85541.80;;;20.86
76394;BMP180;65216;51.090;-115.352;2023-03-01T01:04:06;85532.00;;;20.86
76394;BMP180;65216;51.090;-115.352;2023-03-01T01:06:44;85534.60;;;20.82
76394;BMP180;65216;51.090;-115.352;2023-03-01T01:09:17;85536.80;;;20.82
76394;BMP180;65216;51.090;-115.352;2023-03-01T01:11:50;85541.00;;;20.80
76394;BMP180;65216;51.090;-115.352;2023-03-01T01:14:20;85557.80;;;20.80
76394;BMP180;65216;51.090;-115.352;2023-03-01T01:16:48;85553.60;;;20.80
76394;BMP180;65216;51.090;-115.352;2023-03-01T01:19:17;85570.40;;;20.80
76394;BMP180;65216;51.090;-115.352;2023-03-01T01:21:47;85563.20;;;20.80
76394;BMP180;65216;51.090;-115.352;2023-03-01T01:24:18;85571.40;;;20.80
76394;BMP180;65216;51.090;-115.352;2023-03-01T01:26:46;85566.40;;;20.80
76394;BMP180;65216;51.090;-115.352;2023-03-01T01:29:16;85581.00;;;20.80
76394;BMP180;65216;51.090;-115.352;2023-03-01T01:31:43;85582.80;;;20.80
76394;BMP180;65216;51.090;-115.352;2023-03-01T01:34:17;85569.80;;;20.80
76394;BMP180;65216;51.090;-115.352;2023-03-01T01:36:51;85575.80;;;20.80
76394;BMP180;65216;51.090;-115.352;2023-03-01T01:39:21;85597.40;;;20.80
76394;BMP180;65216;51.090;-115.352;2023-03-01T01:41:51;85591.40;;;20.80
76394;BMP180;65216;51.090;-115.352;2023-03-01T01:44:24;85589.40;;;20.80
76394;BMP180;65216;51.090;-115.352;2023-03-01T01:47:05;85606.40;;;20.80
76394;BMP180;65216;51.090;-115.352;2023-03-01T01:49:41;85608.00;;;20.80
76394;BMP180;65216;51.090;-115.352;2023-03-01T01:52:26;85615.40;;;20.80
76394;BMP180;65216;51.090;-115.352;2023-03-01T01:55:14;85614.80;;;20.80
76394;BMP180;65216;51.090;-115.352;2023-03-01T01:58:00;85625.20;;;20.80
76394;BMP180;65216;51.090;-115.352;2023-03-01T02:00:31;85634.20;;;20.80
76394;BMP180;65216;51.090;-115.352;2023-03-01T02:03:08;85642.20;;;20.80
76394;BMP180;65216;51.090;-115.352;2023-03-01T02:08:23;85646.40;;;20.70
76394;BMP180;65216;51.090;-115.352;2023-03-01T02:10:52;85652.20;;;20.70
76394;BMP180;65216;51.090;-115.352;2023-03-01T02:13:19;85650.20;;;20.70
76394;BMP180;65216;51.090;-115.352;2023-03-01T02:15:50;85651.80;;;20.70
76394;BMP180;65216;51.090;-115.352;2023-03-01T02:18:20;85654.20;;;20.70
76394;BMP180;65216;51.090;-115.352;2023-03-01T02:23:34;85668.20;;;20.74
76394;BMP180;65216;51.090;-115.352;2023-03-01T02:28:38;85666.80;;;20.70
76394;BMP180;65216;51.090;-115.352;2023-03-01T02:31:08;85665.20;;;20.70
76394;BMP180;65216;51.090;-115.352;2023-03-01T02:33:58;85675.40;;;20.70
76394;BMP180;65216;51.090;-115.352;2023-03-01T02:36:33;85683.00;;;20.70
76394;BMP180;65216;51.090;-115.352;2023-03-01T02:39:06;85678.60;;;20.70
76394;BMP180;65216;51.090;-115.352;2023-03-01T02:41:38;85683.80;;;20.70
76394;BMP180;65216;51.090;-115.352;2023-03-01T02:44:08;85682.80;;;20.68
76394;BMP180;65216;51.090;-115.352;2023-03-01T02:46:49;85702.80;;;20.64
76394;BMP180;65216;51.090;-115.352;2023-03-01T02:49:35;85701.60;;;20.66
76394;BMP180;65216;51.090;-115.352;2023-03-01T02:55:09;85716.60;;;20.60
76394;BMP180;65216;51.090;-115.352;2023-03-01T02:57:42;85717.00;;;20.60
76394;BMP180;65216;51.090;-115.352;2023-03-01T03:00:21;85717.80;;;20.60
76394;BMP180;65216;51.090;-115.352;2023-03-01T03:02:57;85722.60;;;20.60
76394;BMP180;65216;51.090;-115.352;2023-03-01T03:05:29;85705.40;;;20.60
76394;BMP180;65216;51.090;-115.352;2023-03-01T03:07:58;85716.00;;;20.60
76394;BMP180;65216;51.090;-115.352;2023-03-01T03:10:31;85727.20;;;20.60
76394;BMP180;65216;51.090;-115.352;2023-03-01T03:13:11;85725.60;;;20.60
76394;BMP180;65216;51.090;-115.352;2023-03-01T03:15:40;85723.20;;;20.60
76394;BMP180;65216;51.090;-115.352;2023-03-01T03:18:13;85728.00;;;20.60
76394;BMP180;65216;51.090;-115.352;2023-03-01T03:20:44;85735.80;;;20.60
76394;BMP180;65216;51.090;-115.352;2023-03-01T03:23:12;85733.00;;;20.60
76394;BMP180;65216;51.090;-115.352;2023-03-01T03:25:40;85746.40;;;20.60
76394;BMP180;65216;51.090;-115.352;2023-03-01T03:28:16;85735.40;;;20.60
76394;BMP180;65216;51.090;-115.352;2023-03-01T03:30:45;85743.40;;;20.60
76394;BMP180;65216;51.090;-115.352;2023-03-01T03:33:16;85741.60;;;20.60
76394;BMP180;65216;51.090;-115.352;2023-03-01T03:35:51;85753.00;;;20.60
76394;BMP180;65216;51.090;-115.352;2023-03-01T03:38:19;85754.60;;;20.60
76394;BMP180;65216;51.090;-115.352;2023-03-01T03:41:01;85754.40;;;20.60
76394;BMP180;65216;51.090;-115.352;2023-03-01T03:43:33;85750.80;;;20.60
76394;BMP180;65216;51.090;-115.352;2023-03-01T03:46:07;85741.80;;;20.60
76394;BMP180;65216;51.090;-115.352;2023-03-01T03:48:40;85750.00;;;20.50
76394;BMP180;65216;51.090;-115.352;2023-03-01T03:51:13;85746.20;;;20.56
76394;BMP180;65216;51.090;-115.352;2023-03-01T03:53:42;85755.40;;;20.58
76394;BMP180;65216;51.090;-115.352;2023-03-01T03:56:10;85768.60;;;20.50
76394;BMP180;65216;51.090;-115.352;2023-03-01T03:58:38;85770.20;;;20.54
76394;BMP180;65216;51.090;-115.352;2023-03-01T04:01:08;85773.60;;;20.50
76394;BMP180;65216;51.090;-115.352;2023-03-01T04:03:35;85770.80;;;20.50
76394;BMP180;65216;51.090;-115.352;2023-03-01T04:06:06;85784.60;;;20.50
76394;BMP180;65216;51.090;-115.352;2023-03-01T04:08:33;85776.60;;;20.50
76394;BMP180;65216;51.090;-115.352;2023-03-01T04:11:03;85777.20;;;20.50
76394;BMP180;65216;51.090;-115.352;2023-03-01T04:13:55;85782.40;;;20.50
76394;BMP180;65216;51.090;-115.352;2023-03-01T04:16:23;85785.60;;;20.50
76394;BMP180;65216;51.090;-115.352;2023-03-01T04:18:51;85784.20;;;20.50
76394;BMP180;65216;51.090;-115.352;2023-03-01T04:21:21;85775.00;;;20.50
76394;BMP180;65216;51.090;-115.352;2023-03-01T04:23:48;85793.80;;;20.50
76394;BMP180;65216;51.090;-115.352;2023-03-01T04:26:22;85795.20;;;20.50
76394;BMP180;65216;51.090;-115.352;2023-03-01T04:28:49;85799.40;;;20.50
76394;BMP180;65216;51.090;-115.352;2023-03-01T04:31:21;85797.40;;;20.50
76394;BMP180;65216;51.090;-115.352;2023-03-01T04:33:54;85806.00;;;20.48
76394;BMP180;65216;51.090;-115.352;2023-03-01T04:36:26;85801.20;;;20.42
76394;BMP180;65216;51.090;-115.352;2023-03-01T04:38:55;85807.00;;;20.42
76394;BMP180;65216;51.090;-115.352;2023-03-01T04:41:28;85814.80;;;20.40
76394;BMP180;65216;51.090;-115.352;2023-03-01T04:43:55;85812.60;;;20.40
76394;BMP180;65216;51.090;-115.352;2023-03-01T04:46:23;85813.80;;;20.40
76394;BMP180;65216;51.090;-115.352;2023-03-01T04:48:51;85815.40;;;20.40
76394;BMP180;65216;51.090;-115.352;2023-03-01T04:51:22;85818.40;;;20.40
76394;BMP180;65216;51.090;-115.352;2023-03-01T04:53:49;85817.60;;;20.40
76394;BMP180;65216;51.090;-115.352;2023-03-01T04:56:20;85823.40;;;20.40
76394;BMP180;65216;51.090;-115.352;2023-03-01T04:58:49;85822.00;;;20.40
76394;BMP180;65216;51.090;-115.352;2023-03-01T05:01:21;85812.80;;;20.34
76394;BMP180;65216;51.090;-115.352;2023-03-01T05:03:51;85821.00;;;20.30
76394;BMP180;65216;51.090;-115.352;2023-03-01T05:06:23;85822.00;;;20.30
76394;BMP180;65216;51.090;-115.352;2023-03-01T05:08:51;85822.80;;;20.30
76394;BMP180;65216;51.090;-115.352;2023-03-01T05:11:21;85830.80;;;20.30
76394;BMP180;65216;51.090;-115.352;2023-03-01T05:13:48;85829.00;;;20.30
76394;BMP180;65216;51.090;-115.352;2023-03-01T05:16:21;85835.40;;;20.30
76394;BMP180;65216;51.090;-115.352;2023-03-01T05:18:49;85838.60;;;20.28
76394;BMP180;65216;51.090;-115.352;2023-03-01T05:21:17;85843.00;;;20.26
76394;BMP180;65216;51.090;-115.352;2023-03-01T05:23:47;85842.80;;;20.20
76394;BMP180;65216;51.090;-115.352;2023-03-01T05:26:19;85847.40;;;20.20
76394;BMP180;65216;51.090;-115.352;2023-03-01T05:28:49;85848.80;;;20.20
76394;BMP180;65216;51.090;-115.352;2023-03-01T05:31:16;85849.60;;;20.20
76394;BMP180;65216;51.090;-115.352;2023-03-01T05:33:44;85849.80;;;20.20
76394;BMP180;65216;51.090;-115.352;2023-03-01T05:36:12;85854.00;;;20.20
76394;BMP180;65216;51.090;-115.352;2023-03-01T05:38:39;85851.80;;;20.20
76394;BMP180;65216;51.090;-115.352;2023-03-01T05:41:15;85859.00;;;20.20
76394;BMP180;65216;51.090;-115.352;2023-03-01T05:43:46;85858.00;;;20.20
76394;BMP180;65216;51.090;-115.352;2023-03-01T05:46:14;85855.80;;;20.20
76394;BMP180;65216;51.090;-115.352;2023-03-01T05:48:43;85856.20;;;20.18
76394;BMP180;65216;51.090;-115.352;2023-03-01T05:51:11;85857.60;;;20.14
76394;BMP180;65216;51.090;-115.352;2023-03-01T05:53:38;85863.00;;;20.12
76394;BMP180;65216;51.090;-115.352;2023-03-01T05:56:06;85864.40;;;20.10
76394;BMP180;65216;51.090;-115.352;2023-03-01T05:58:33;85866.20;;;20.10
76394;BMP180;65216;51.090;-115.352;2023-03-01T06:01:01;85868.40;;;20.10
76394;BMP180;65216;51.090;-115.352;2023-03-01T06:03:28;85865.80;;;20.10
76394;BMP180;65216;51.090;-115.352;2023-03-01T06:06:01;85867.20;;;20.10
76394;BMP180;65216;51.090;-115.352;2023-03-01T06:08:28;85869.00;;;20.10
76394;BMP180;65216;51.090;-115.352;2023-03-01T06:10:56;85873.20;;;20.10
76394;BMP180;65216;51.090;-115.352;2023-03-01T06:13:24;85875.40;;;20.10
76394;BMP180;65216;51.090;-115.352;2023-03-01T06:15:54;85880.20;;;20.08
76394;BMP180;65216;51.090;-115.352;2023-03-01T06:18:30;85881.80;;;20.04
76394;BMP180;65216;51.090;-115.352;2023-03-01T06:20:57;85886.80;;;20.00
76394;BMP180;65216;51.090;-115.352;2023-03-01T06:23:25;85889.00;;;20.00
76394;BMP180;65216;51.090;-115.352;2023-03-01T06:25:53;85888.20;;;20.00
76394;BMP180;65216;51.090;-115.352;2023-03-01T06:28:20;85889.80;;;20.00
76394;BMP180;65216;51.090;-115.352;2023-03-01T06:30:49;85891.80;;;20.00
76394;BMP180;65216;51.090;-115.352;2023-03-01T06:33:20;85895.80;;;20.00
76394;BMP180;65216;51.090;-115.352;2023-03-01T06:35:51;85895.60;;;20.00
76394;BMP180;65216;51.090;-115.352;2023-03-01T06:38:18;85901.40;;;20.00
76394;BMP180;65216;51.090;-115.352;2023-03-01T06:40:51;85900.80;;;20.00
76394;BMP180;65216;51.090;-115.352;2023-03-01T06:43:21;85905.40;;;20.00
76394;BMP180;65216;51.090;-115.352;2023-03-01T06:45:48;85909.60;;;20.00
76394;BMP180;65216;51.090;-115.352;2023-03-01T06:48:16;85908.00;;;20.00
76394;BMP180;65216;51.090;-115.352;2023-03-01T06:50:43;85904.20;;;20.00
76394;BMP180;65216;51.090;-115.352;2023-03-01T06:53:11;85905.00;;;20.00
76394;BMP180;65216;51.090;-115.352;2023-03-01T06:55:38;85904.60;;;20.00
76394;BMP180;65216;51.090;-115.352;2023-03-01T06:58:06;85900.20;;;20.00
76394;BMP180;65216;51.090;-115.352;2023-03-01T07:00:33;85902.60;;;20.00
76394;BMP180;65216;51.090;-115.352;2023-03-01T07:03:02;85900.80;;;20.00
76394;BMP180;65216;51.090;-115.352;2023-03-01T07:05:30;85896.00;;;20.00
76394;BMP180;65216;51.090;-115.352;2023-03-01T07:07:58;85905.20;;;20.00
76394;BMP180;65216;51.090;-115.352;2023-03-01T07:10:25;85899.80;;;20.00
76394;BMP180;65216;51.090;-115.352;2023-03-01T07:12:57;85901.00;;;20.00
76394;BMP180;65216;51.090;-115.352;2023-03-01T07:15:26;85900.20;;;20.00
76394;BMP180;65216;51.090;-115.352;2023-03-01T07:17:55;85899.40;;;20.00
76394;BMP180;65216;51.090;-115.352;2023-03-01T07:20:25;85901.60;;;19.98
76394;BMP180;65216;51.090;-115.352;2023-03-01T07:22:59;85898.60;;;19.92
76394;BMP180;65216;51.090;-115.352;2023-03-01T07:25:26;85902.20;;;19.98
76394;BMP180;65216;51.090;-115.352;2023-03-01T07:27:56;85906.40;;;19.92
76394;BMP180;65216;51.090;-115.352;2023-03-01T07:30:24;85908.60;;;19.90
76394;BMP180;65216;51.090;-115.352;2023-03-01T07:32:58;85902.00;;;19.90
76394;BMP180;65216;51.090;-115.352;2023-03-01T07:35:28;85912.80;;;19.90
76394;BMP180;65216;51.090;-115.352;2023-03-01T07:38:00;85907.80;;;19.90
76394;BMP180;65216;51.090;-115.352;2023-03-01T07:40:27;85908.60;;;19.90
76394;BMP180;65216;51.090;-115.352;2023-03-01T07:42:58;85911.40;;;19.90
76394;BMP180;65216;51.090;-115.352;2023-03-01T07:45:29;85905.80;;;19.90
76394;BMP180;65216;51.090;-115.352;2023-03-01T07:47:58;85907.80;;;19.90
76394;BMP180;65216;51.090;-115.352;2023-03-01T07:50:26;85916.80;;;19.90
76394;BMP180;65216;51.090;-115.352;2023-03-01T07:52:56;85918.00;;;19.90
76394;BMP180;65216;51.090;-115.352;2023-03-01T07:55:29;85917.80;;;19.90
76394;BMP180;65216;51.090;-115.352;2023-03-01T07:57:57;85916.20;;;19.90
76394;BMP180;65216;51.090;-115.352;2023-03-01T08:00:24;85914.60;;;19.90
76394;BMP180;65216;51.090;-115.352;2023-03-01T08:02:51;85914.80;;;19.90
76394;BMP180;65216;51.090;-115.352;2023-03-01T08:05:19;85915.80;;;19.90
76394;BMP180;65216;51.090;-115.352;2023-03-01T08:07:49;85914.80;;;19.90
76394;BMP180;65216;51.090;-115.352;2023-03-01T08:10:16;85914.00;;;19.90
76394;BMP180;65216;51.090;-115.352;2023-03-01T08:12:46;85916.00;;;19.90
76394;BMP180;65216;51.090;-115.352;2023-03-01T08:15:16;85910.80;;;19.90
76394;BMP180;65216;51.090;-115.352;2023-03-01T08:17:52;85913.80;;;19.90
76394;BMP180;65216;51.090;-115.352;2023-03-01T08:20:22;85916.60;;;19.90
76394;BMP180;65216;51.090;-115.352;2023-03-01T08:22:49;85911.80;;;19.90
76394;BMP180;65216;51.090;-115.352;2023-03-01T08:25:17;85911.40;;;19.82
76394;BMP180;65216;51.090;-115.352;2023-03-01T08:27:47;85906.60;;;19.84
76394;BMP180;65216;51.090;-115.352;2023-03-01T08:30:14;85905.00;;;19.80
76394;BMP180;65216;51.090;-115.352;2023-03-01T08:32:44;85903.40;;;19.80
76394;BMP180;65216;51.090;-115.352;2023-03-01T08:35:11;85901.80;;;19.80
76394;BMP180;65216;51.090;-115.352;2023-03-01T08:37:39;85902.60;;;19.80
76394;BMP180;65216;51.090;-115.352;2023-03-01T08:40:07;85901.00;;;19.80
76394;BMP180;65216;51.090;-115.352;2023-03-01T08:42:43;85900.20;;;19.80
76394;BMP180;65216;51.090;-115.352;2023-03-01T08:45:11;85910.80;;;19.80
76394;BMP180;65216;51.090;-115.352;2023-03-01T08:47:40;85914.80;;;19.80
76394;BMP180;65216;51.090;-115.352;2023-03-01T08:50:08;85919.60;;;19.80
76394;BMP180;65216;51.090;-115.352;2023-03-01T08:52:39;85917.40;;;19.80
76394;BMP180;65216;51.090;-115.352;2023-03-01T08:55:07;85915.60;;;19.80
76394;BMP180;65216;51.090;-115.352;2023-03-01T08:57:37;85912.00;;;19.80
76394;BMP180;65216;51.090;-115.352;2023-03-01T09:00:05;85905.40;;;19.80
76394;BMP180;65216;51.090;-115.352;2023-03-01T09:09:14;85902.60;;;19.80
76394;BMP180;65216;51.090;-115.352;2023-03-01T09:11:43;85904.40;;;19.80
76394;BMP180;65216;51.090;-115.352;2023-03-01T09:14:17;85904.00;;;19.80
76394;BMP180;65216;51.090;-115.352;2023-03-01T09:16:53;85899.40;;;19.80
76394;BMP180;65216;51.090;-115.352;2023-03-01T09:19:20;85900.00;;;19.80
76394;BMP180;65216;51.090;-115.352;2023-03-01T09:21:48;85900.00;;;19.80
76394;BMP180;65216;51.090;-115.352;2023-03-01T09:24:27;85894.40;;;19.80
76394;BMP180;65216;51.090;-115.352;2023-03-01T09:26:56;85888.40;;;19.80
76394;BMP180;65216;51.090;-115.352;2023-03-01T09:29:24;85887.00;;;19.80
76394;BMP180;65216;51.090;-115.352;2023-03-01T09:31:52;85884.40;;;19.80
76394;BMP180;65216;51.090;-115.352;2023-03-01T09:34:22;85882.80;;;19.80
76394;BMP180;65216;51.090;-115.352;2023-03-01T09:36:56;85880.80;;;19.80
76394;BMP180;65216;51.090;-115.352;2023-03-01T09:39:24;85883.00;;;19.80
76394;BMP180;65216;51.090;-115.352;2023-03-01T09:42:04;85887.40;;;19.80
76394;BMP180;65216;51.090;-115.352;2023-03-01T09:44:57;85890.80;;;19.80
76394;BMP180;65216;51.090;-115.352;2023-03-01T09:47:33;85887.40;;;19.80
76394;BMP180;65216;51.090;-115.352;2023-03-01T09:50:40;85884.00;;;19.80
76394;BMP180;65216;51.090;-115.352;2023-03-01T09:53:22;85887.60;;;19.80
76394;BMP180;65216;51.090;-115.352;2023-03-01T09:56:10;85886.20;;;19.70
76394;BMP180;65216;51.090;-115.352;2023-03-01T09:58:48;85892.60;;;19.78
76394;BMP180;65216;51.090;-115.352;2023-03-01T10:01:30;85891.60;;;19.74
76394;BMP180;65216;51.090;-115.352;2023-03-01T10:04:47;85888.80;;;19.78
76394;BMP180;65216;51.090;-115.352;2023-03-01T10:10:38;85893.20;;;19.70
76394;BMP180;65216;51.090;-115.352;2023-03-01T10:13:52;85888.80;;;19.70
76394;BMP180;65216;51.090;-115.352;2023-03-01T10:19:40;85892.60;;;19.70
76394;BMP180;65216;51.090;-115.352;2023-03-01T10:22:29;85900.60;;;19.70
76394;BMP180;65216;51.090;-115.352;2023-03-01T10:25:02;85894.40;;;19.70
76394;BMP180;65216;51.090;-115.352;2023-03-01T10:28:05;85895.80;;;19.70
76394;BMP180;65216;51.090;-115.352;2023-03-01T10:30:41;85897.00;;;19.70
76394;BMP180;65216;51.090;-115.352;2023-03-01T10:33:24;85901.20;;;19.70
76394;BMP180;65216;51.090;-115.352;2023-03-01T10:35:53;85905.40;;;19.70
76394;BMP180;65216;51.090;-115.352;2023-03-01T10:38:22;85903.00;;;19.70
76394;BMP180;65216;51.090;-115.352;2023-03-01T10:40:58;85899.60;;;19.70
76394;BMP180;65216;51.090;-115.352;2023-03-01T10:43:48;85896.80;;;19.70
76394;BMP180;65216;51.090;-115.352;2023-03-01T10:46:32;85899.20;;;19.70
76394;BMP180;65216;51.090;-115.352;2023-03-01T10:50:03;85895.60;;;19.70
76394;BMP180;65216;51.090;-115.352;2023-03-01T10:53:04;85902.40;;;19.70
76394;BMP180;65216;51.090;-115.352;2023-03-01T10:55:40;85898.00;;;19.70
76394;BMP180;65216;51.090;-115.352;2023-03-01T10:58:22;85904.20;;;19.70
76394;BMP180;65216;51.090;-115.352;2023-03-01T11:01:03;85910.40;;;19.70
76394;BMP180;65216;51.090;-115.352;2023-03-01T11:03:38;85912.80;;;19.70
76394;BMP180;65216;51.090;-115.352;2023-03-01T11:06:21;85914.40;;;19.70
76394;BMP180;65216;51.090;-115.352;2023-03-01T11:08:50;85912.20;;;19.70
76394;BMP180;65216;51.090;-115.352;2023-03-01T11:11:32;85917.00;;;19.70
76394;BMP180;65216;51.090;-115.352;2023-03-01T11:14:38;85914.80;;;19.70
76394;BMP180;65216;51.090;-115.352;2023-03-01T11:17:45;85922.60;;;19.70
76394;BMP180;65216;51.090;-115.352;2023-03-01T11:23:12;85923.60;;;19.66
76394;BMP180;65216;51.090;-115.352;2023-03-01T11:25:59;85923.80;;;19.64
76394;BMP180;65216;51.090;-115.352;2023-03-01T11:28:30;85922.80;;;19.60
76394;BMP180;65216;51.090;-115.352;2023-03-01T11:34:05;85925.20;;;19.60
76394;BMP180;65216;51.090;-115.352;2023-03-01T11:37:01;85928.40;;;19.60
76394;BMP180;65216;51.090;-115.352;2023-03-01T11:39:39;85931.80;;;19.54
76394;BMP180;65216;51.090;-115.352;2023-03-01T11:42:24;85933.80;;;19.52
76394;BMP180;65216;51.090;-115.352;2023-03-01T11:44:59;85932.00;;;19.50
76394;BMP180;65216;51.090;-115.352;2023-03-01T11:50:51;85935.40;;;19.50
76394;BMP180;65216;51.090;-115.352;2023-03-01T11:56:41;85931.80;;;19.50
76394;BMP180;65216;51.090;-115.352;2023-03-01T12:05:00;85943.20;;;19.42
76394;BMP180;65216;51.090;-115.352;2023-03-01T12:11:03;85926.60;;;19.40
76394;BMP180;65216;51.090;-115.352;2023-03-01T12:26:33;85932.20;;;19.40
76394;BMP180;65216;51.090;-115.352;2023-03-01T12:29:22;85939.40;;;19.40
76394;BMP180;65216;51.090;-115.352;2023-03-01T12:41:02;85929.40;;;19.46
76394;BMP180;65216;51.090;-115.352;2023-03-01T12:46:51;85925.40;;;19.48
76394;BMP180;65216;51.090;-115.352;2023-03-01T12:49:46;85916.00;;;19.50
76394;BMP180;65216;51.090;-115.352;2023-03-01T12:58:13;85922.80;;;19.50
76394;BMP180;65216;51.090;-115.352;2023-03-01T13:04:29;85929.00;;;19.50
76394;BMP180;65216;51.090;-115.352;2023-03-01T13:10:41;85934.00;;;19.50
76394;BMP180;65216;51.090;-115.352;2023-03-01T13:14:18;85932.80;;;19.48
76394;BMP180;65216;51.090;-115.352;2023-03-01T13:16:41;85926.80;;;19.50
76394;BMP180;65216;51.090;-115.352;2023-03-01T13:19:29;85919.00;;;19.50
76394;BMP180;65216;51.090;-115.352;2023-03-01T13:22:30;85922.20;;;19.50
76394;BMP180;65216;51.090;-115.352;2023-03-01T13:25:21;85921.60;;;19.46
76394;BMP180;65216;51.090;-115.352;2023-03-01T13:34:00;85929.20;;;19.42
76394;BMP180;65216;51.090;-115.352;2023-03-01T13:39:28;85925.40;;;19.40
76394;BMP180;65216;51.090;-115.352;2023-03-01T13:42:01;85915.20;;;19.42
76394;BMP180;65216;51.090;-115.352;2023-03-01T13:44:39;85923.00;;;19.40
76394;BMP180;65216;51.090;-115.352;2023-03-01T13:47:17;85922.00;;;19.40
76394;BMP180;65216;51.090;-115.352;2023-03-01T13:50:00;85925.40;;;19.40
76394;BMP180;65216;51.090;-115.352;2023-03-01T13:53:04;85935.60;;;19.40
76394;BMP180;65216;51.090;-115.352;2023-03-01T13:56:11;85923.80;;;19.40
76394;BMP180;65216;51.090;-115.352;2023-03-01T13:59:12;85933.20;;;19.40
76394;BMP180;65216;51.090;-115.352;2023-03-01T14:01:43;85957.60;;;19.40
76394;BMP180;65216;51.090;-115.352;2023-03-01T14:04:32;85948.80;;;19.40
76394;BMP180;65216;51.090;-115.352;2023-03-01T14:07:22;85942.00;;;19.40
76394;BMP180;65216;51.090;-115.352;2023-03-01T14:10:12;85951.60;;;19.40
76394;BMP180;65216;51.090;-115.352;2023-03-01T14:19:27;85916.20;;;19.48
76394;BMP180;65216;51.090;-115.352;2023-03-01T14:22:24;85917.40;;;19.44
76394;BMP180;65216;51.090;-115.352;2023-03-01T14:25:36;85905.80;;;19.44
76394;BMP180;65216;51.090;-115.352;2023-03-01T14:28:25;85900.60;;;19.46
76394;BMP180;65216;51.090;-115.352;2023-03-01T14:31:02;85895.40;;;19.50
76394;BMP180;65216;51.090;-115.352;2023-03-01T14:33:35;85880.20;;;19.50
76394;BMP180;65216;51.090;-115.352;2023-03-01T14:36:13;85882.60;;;19.50
76394;BMP180;65216;51.090;-115.352;2023-03-01T14:38:48;85895.00;;;19.50
76394;BMP180;65216;51.090;-115.352;2023-03-01T14:41:35;85895.00;;;19.50
76394;BMP180;65216;51.090;-115.352;2023-03-01T14:44:15;85898.20;;;19.50
76394;BMP180;65216;51.090;-115.352;2023-03-01T14:46:46;85889.20;;;19.50
76394;BMP180;65216;51.090;-115.352;2023-03-01T14:49:24;85884.40;;;19.50
76394;BMP180;65216;51.090;-115.352;2023-03-01T14:52:20;85886.00;;;19.56
76394;BMP180;65216;51.090;-115.352;2023-03-01T14:54:53;85885.40;;;19.60
76394;BMP180;65216;51.090;-115.352;2023-03-01T14:57:27;85889.60;;;19.60
76394;BMP180;65216;51.090;-115.352;2023-03-01T14:59:59;85878.20;;;19.60
76394;BMP180;65216;51.090;-115.352;2023-03-01T15:02:34;85883.20;;;19.60
76394;BMP180;65216;51.090;-115.352;2023-03-01T15:05:08;85878.40;;;19.60
76394;BMP180;65216;51.090;-115.352;2023-03-01T15:07:42;85877.00;;;19.60
76394;BMP180;65216;51.090;-115.352;2023-03-01T15:10:38;85862.60;;;19.60
76394;BMP180;65216;51.090;-115.352;2023-03-01T15:13:13;85855.80;;;19.60
76394;BMP180;65216;51.090;-115.352;2023-03-01T15:15:49;85885.60;;;19.60
76394;BMP180;65216;51.090;-115.352;2023-03-01T15:18:31;85875.60;;;19.66
76394;BMP180;65216;51.090;-115.352;2023-03-01T15:21:27;85857.60;;;19.70
76394;BMP180;65216;51.090;-115.352;2023-03-01T15:24:20;85856.40;;;19.70
76394;BMP180;65216;51.090;-115.352;2023-03-01T15:26:59;85866.00;;;19.70
76394;BMP180;65216;51.090;-115.352;2023-03-01T15:29:30;85860.00;;;19.70
76394;BMP180;65216;51.090;-115.352;2023-03-01T15:32:04;85859.60;;;19.70
76394;BMP180;65216;51.090;-115.352;2023-03-01T15:34:35;85849.60;;;19.70
76394;BMP180;65216;51.090;-115.352;2023-03-01T15:40:31;85844.80;;;19.70
76394;BMP180;65216;51.090;-115.352;2023-03-01T15:43:00;85847.00;;;19.70
76394;BMP180;65216;51.090;-115.352;2023-03-01T15:45:33;85853.20;;;19.70
76394;BMP180;65216;51.090;-115.352;2023-03-01T15:48:17;85848.80;;;19.70
76394;BMP180;65216;51.090;-115.352;2023-03-01T15:50:57;85829.40;;;19.70
76394;BMP180;65216;51.090;-115.352;2023-03-01T15:53:31;85844.40;;;19.70
76394;BMP180;65216;51.090;-115.352;2023-03-01T15:55:59;85835.20;;;19.70